Time;durP1;ratioP1;P1;durP2;ratioP2;P2;SDS_P1;SDS_P2;PMS_P1;PMS_P2;Temp;Humidity;BMP_temperature;BMP_pressure;BME280_temperature;BME280_humidity;BME280_pressure;Samples;Min_cycle;Max_cycle;Signal;HPM_P1;HPM_P2
2022/03/29 00:01:35;;;;;;;11.70;6.50;;;;;;;8.71;40.86;98670.89;109085;1277;22537;-59
2022/03/29 00:04:03;;;;;;;11.40;6.40;;;;;;;8.69;40.99;98666.64;108923;1278;137665;-60
2022/03/29 00:06:31;;;;;;;18.60;8.00;;;;;;;8.68;41.01;98659.20;109066;1277;22466;-59
2022/03/29 00:09:15;;;;;;;14.10;6.90;;;;;;;8.67;40.89;98658.10;108917;1279;137081;-59
2022/03/29 00:11:45;;;;;;;19.70;7.80;;;;;;;8.66;40.79;98654.89;109051;1277;22447;-59
2022/03/29 00:14:15;;;;;;;17.20;7.10;;;;;;;8.65;40.57;98651.81;108858;1279;138279;-59
2022/03/29 00:16:44;;;;;;;12.50;7.00;;;;;;;8.64;40.57;98648.66;109088;1277;22288;-59
2022/03/29 00:19:13;;;;;;;19.10;8.20;;;;;;;8.63;40.54;98648.44;109047;1278;22434;-59
2022/03/29 00:21:42;;;;;;;16.40;8.40;;;;;;;8.62;40.43;98648.92;109007;1277;139129;-60
2022/03/29 00:24:10;;;;;;;18.40;8.50;;;;;;;8.61;40.15;98643.38;109092;1278;22447;-61
2022/03/29 00:26:38;;;;;;;13.90;8.40;;;;;;;8.60;40.32;98642.66;106347;1278;137329;-59
2022/03/29 00:29:08;;;;;;;18.50;8.90;;;;;;;8.58;40.22;98638.27;109088;1278;22443;-60
2022/03/29 00:31:36;;;;;;;17.30;8.90;;;;;;;8.56;40.10;98637.86;109026;1278;22433;-60
2022/03/29 00:34:04;;;;;;;22.20;9.60;;;;;;;8.54;40.00;98637.97;108941;1277;137143;-60
2022/03/29 00:36:32;;;;;;;19.30;9.60;;;;;;;8.53;39.94;98637.52;109090;1277;22463;-60
2022/03/29 00:39:01;;;;;;;19.40;10.00;;;;;;;8.50;40.03;98636.50;108957;1278;138198;-60
2022/03/29 00:41:31;;;;;;;19.00;9.50;;;;;;;8.48;39.81;98633.14;109078;1277;23426;-61
2022/03/29 00:43:59;;;;;;;21.10;9.50;;;;;;;8.47;39.86;98632.15;108959;1278;138560;-60
2022/03/29 00:46:28;;;;;;;22.00;10.20;;;;;;;8.46;40.04;98629.48;109013;1277;22253;-60
2022/03/29 00:48:56;;;;;;;22.60;10.00;;;;;;;8.44;39.64;98626.70;108961;1278;22426;-60
2022/03/29 00:51:25;;;;;;;18.90;9.30;;;;;;;8.41;39.58;98621.47;108957;1277;138321;-60
2022/03/29 00:53:53;;;;;;;20.70;9.70;;;;;;;8.40;39.67;98624.94;109079;1278;22422;-60
2022/03/29 00:56:21;;;;;;;18.70;9.50;;;;;;;8.38;39.78;98621.29;106824;1278;137344;-60
2022/03/29 00:58:49;;;;;;;20.10;10.20;;;;;;;8.35;39.83;98617.02;109039;1278;23354;-60
2022/03/29 01:01:18;;;;;;;26.20;10.10;;;;;;;8.33;39.79;98614.73;109039;1279;22556;-60
2022/03/29 01:03:48;;;;;;;17.00;8.90;;;;;;;8.31;39.59;98609.97;108932;1279;138338;-60
2022/03/29 01:06:16;;;;;;;19.60;9.10;;;;;;;8.29;39.96;98614.45;108998;1277;22583;-60
2022/03/29 01:08:45;;;;;;;20.50;9.60;;;;;;;8.27;39.89;98612.53;108974;1277;137120;-60
2022/03/29 01:11:19;;;;;;;20.70;9.70;;;;;;;8.26;39.71;98614.32;109061;1277;23770;-60
2022/03/29 01:13:47;;;;;;;19.70;10.70;;;;;;;8.24;39.64;98612.14;108855;1279;23186;-60
2022/03/29 01:19:05;;;;;;;18.00;9.60;;;;;;;8.19;39.53;98605.73;109081;1278;22504;-60
2022/03/29 01:21:34;;;;;;;19.50;10.90;;;;;;;8.18;39.50;98602.52;108834;1278;137419;-60
2022/03/29 01:24:02;;;;;;;16.20;9.30;;;;;;;8.16;39.55;98600.98;109091;1277;23117;-60
2022/03/29 01:26:31;;;;;;;19.50;10.40;;;;;;;8.14;39.79;98601.48;108959;1278;137437;-63
2022/03/29 01:28:59;;;;;;;19.40;10.50;;;;;;;8.12;39.60;98593.09;108908;1278;23219;-63
2022/03/29 01:31:29;;;;;;;22.90;10.10;;;;;;;8.11;39.81;98585.98;109033;1278;22457;-63
2022/03/29 01:33:57;;;;;;;21.10;10.60;;;;;;;8.10;39.93;98586.90;108839;1277;137893;-63
2022/03/29 01:36:27;;;;;;;19.30;10.20;;;;;;;8.10;39.75;98580.61;109038;1279;22477;-63
2022/03/29 01:38:55;;;;;;;19.30;10.50;;;;;;;8.08;39.66;98580.01;108834;1279;137338;-63
2022/03/29 01:41:23;;;;;;;18.70;10.10;;;;;;;8.09;39.58;98581.52;109079;1278;23170;-63
2022/03/29 01:43:52;;;;;;;18.30;9.90;;;;;;;8.09;39.92;98581.20;108791;1280;22444;-63
2022/03/29 01:46:21;;;;;;;19.70;10.10;;;;;;;8.09;39.57;98578.42;108974;1277;137843;-63
2022/03/29 01:48:50;;;;;;;20.10;10.00;;;;;;;8.09;39.71;98579.20;109107;1277;22464;-63
2022/03/29 01:51:19;;;;;;;19.00;9.60;;;;;;;8.08;39.78;98578.05;108922;1279;138161;-63
2022/03/29 01:53:52;;;;;;;25.80;11.20;;;;;;;8.07;39.61;98578.00;109096;1277;22504;-63
2022/03/29 01:56:21;;;;;;;20.30;9.90;;;;;;;8.07;39.82;98574.33;108967;1278;137698;-63
2022/03/29 01:58:49;;;;;;;18.30;10.10;;;;;;;8.05;39.56;98573.55;109081;1277;22451;-63
2022/03/29 02:01:17;;;;;;;20.80;10.40;;;;;;;8.03;39.78;98571.75;109097;1277;22428;-63
2022/03/29 02:03:46;;;;;;;20.40;8.90;;;;;;;8.01;39.64;98565.71;108970;1277;137551;-63
2022/03/29 02:06:15;;;;;;;19.30;10.00;;;;;;;8.00;39.86;98569.29;109101;1279;23129;-60
2022/03/29 02:08:43;;;;;;;18.60;9.40;;;;;;;7.98;39.91;98570.14;108978;1277;138923;-60
2022/03/29 02:11:13;;;;;;;15.00;9.10;;;;;;;7.96;39.82;98564.32;109107;1279;22554;-60
2022/03/29 02:13:48;;;;;;;15.80;8.90;;;;;;;7.94;40.00;98565.41;109120;1277;22411;-60
2022/03/29 02:16:17;;;;;;;18.50;9.90;;;;;;;7.93;39.79;98564.38;108981;1279;137073;-60
2022/03/29 02:18:45;;;;;;;18.80;10.20;;;;;;;7.90;39.91;98563.83;109083;1277;22400;-60
2022/03/29 02:21:14;;;;;;;19.20;10.70;;;;;;;7.88;40.08;98557.52;108890;1278;139159;-59
2022/03/29 02:23:43;;;;;;;15.80;9.00;;;;;;;7.86;40.08;98548.23;109081;1278;22408;-60
2022/03/29 02:26:11;;;;;;;17.90;10.30;;;;;;;7.86;40.18;98553.10;108966;1278;137622;-60
2022/03/29 02:28:40;;;;;;;18.60;9.40;;;;;;;7.84;40.16;98546.65;109069;1278;22582;-60
2022/03/29 02:31:08;;;;;;;22.50;10.00;;;;;;;7.83;39.89;98549.23;109111;1278;22395;-60
2022/03/29 02:33:37;;;;;;;20.20;10.50;;;;;;;7.82;40.00;98549.88;108962;1277;137620;-60
2022/03/29 02:36:05;;;;;;;24.70;11.00;;;;;;;7.80;40.39;98543.48;109092;1279;22349;-60
2022/03/29 02:38:34;;;;;;;21.90;10.80;;;;;;;7.80;40.22;98540.00;108915;1278;137531;-60
2022/03/29 02:41:02;;;;;;;20.50;10.20;;;;;;;7.78;40.35;98538.89;109078;1278;22442;-60
2022/03/29 02:43:31;;;;;;;17.70;11.60;;;;;;;7.77;40.33;98541.75;109054;1279;23200;-61
2022/03/29 02:45:59;;;;;;;22.90;11.00;;;;;;;7.76;40.53;98542.23;108948;1278;137687;-60
2022/03/29 02:48:32;;;;;;;22.50;11.70;;;;;;;7.76;40.49;98544.73;109117;1277;22490;-60
2022/03/29 02:51:00;;;;;;;25.30;12.10;;;;;;;7.74;40.49;98545.90;108921;1279;138060;-60
2022/03/29 02:53:32;;;;;;;21.70;12.20;;;;;;;7.72;40.43;98546.64;109136;1277;22342;-60
2022/03/29 02:56:01;;;;;;;20.20;12.20;;;;;;;7.70;40.73;98547.16;109014;1277;138517;-60
2022/03/29 02:58:30;;;;;;;19.40;11.80;;;;;;;7.68;40.79;98551.88;109091;1278;23308;-60
2022/03/29 03:00:58;;;;;;;21.90;11.40;;;;;;;7.66;40.64;98543.80;109074;1278;22420;-60
2022/03/29 03:03:29;;;;;;;22.60;12.20;;;;;;;7.64;40.70;98550.89;108946;1279;138730;-60
2022/03/29 03:05:58;;;;;;;20.70;12.40;;;;;;;7.62;40.72;98541.92;107670;1279;24321;-60
2022/03/29 03:08:32;;;;;;;21.90;12.50;;;;;;;7.59;40.94;98542.02;104580;1279;138459;-60
2022/03/29 03:11:00;;;;;;;24.50;12.60;;;;;;;7.58;41.10;98540.77;104612;1279;24298;-59
2022/03/29 03:13:40;;;;;;;22.40;12.40;;;;;;;7.56;41.25;98536.25;104667;1279;22560;-59
2022/03/29 03:16:09;;;;;;;25.00;12.10;;;;;;;7.52;41.28;98535.36;108984;1278;137706;-60
2022/03/29 03:18:37;;;;;;;23.30;13.30;;;;;;;7.49;41.38;98537.57;109090;1279;22473;-60
2022/03/29 03:21:05;;;;;;;27.40;13.00;;;;;;;7.47;41.29;98538.75;108988;1278;139151;-61
2022/03/29 03:23:53;;;;;;;23.10;11.80;;;;;;;7.43;41.40;98541.44;108992;1279;22442;-60
2022/03/29 03:26:21;;;;;;;22.40;12.50;;;;;;;7.41;41.52;98542.61;108983;1279;138412;-60
2022/03/29 03:28:50;;;;;;;24.00;13.10;;;;;;;7.38;41.66;98536.35;109089;1278;22465;-60
2022/03/29 03:31:18;;;;;;;24.40;12.60;;;;;;;7.35;41.80;98532.45;109083;1277;22613;-60
2022/03/29 03:33:46;;;;;;;21.00;12.00;;;;;;;7.33;42.18;98531.41;108980;1279;138324;-60
2022/03/29 03:36:15;;;;;;;21.00;12.10;;;;;;;7.32;42.19;98532.38;109112;1278;23285;-60
2022/03/29 03:38:43;;;;;;;23.80;13.00;;;;;;;7.30;41.96;98534.64;109007;1278;138202;-60
2022/03/29 03:41:12;;;;;;;31.00;12.20;;;;;;;7.28;42.24;98533.75;108960;1277;23215;-60
2022/03/29 03:43:40;;;;;;;19.20;11.70;;;;;;;7.26;42.54;98537.31;109113;1279;22552;-60
2022/03/29 03:46:08;;;;;;;20.40;12.60;;;;;;;7.25;42.40;98531.61;108993;1278;138271;-60
2022/03/29 03:48:37;;;;;;;20.20;11.80;;;;;;;7.23;42.49;98529.10;109061;1278;23094;-60
2022/03/29 03:51:06;;;;;;;21.10;13.10;;;;;;;7.23;42.69;98531.37;109009;1278;138508;-60
2022/03/29 03:53:34;;;;;;;26.00;13.00;;;;;;;7.22;42.94;98528.44;109085;1278;22287;-60
2022/03/29 03:56:03;;;;;;;22.10;12.80;;;;;;;7.20;42.50;98528.45;108988;1278;137647;-60
2022/03/29 03:58:31;;;;;;;25.90;13.00;;;;;;;7.19;42.84;98529.10;109097;1278;22264;-60
2022/03/29 04:01:06;;;;;;;19.60;11.70;;;;;;;7.19;43.04;98533.59;109070;1278;22614;-60
2022/03/29 04:03:34;;;;;;;22.40;12.40;;;;;;;7.17;43.13;98527.30;108981;1279;137358;-60
2022/03/29 04:06:04;;;;;;;21.40;12.40;;;;;;;7.17;43.18;98530.64;109088;1278;22402;-60
2022/03/29 04:08:32;;;;;;;21.60;11.90;;;;;;;7.18;43.11;98529.08;108987;1278;139316;-60
2022/03/29 04:11:02;;;;;;;21.50;11.80;;;;;;;7.19;43.39;98526.20;109067;1276;22431;-60
2022/03/29 04:13:30;;;;;;;21.00;12.20;;;;;;;7.20;43.74;98527.38;109096;1279;22460;-60
2022/03/29 04:15:59;;;;;;;20.80;12.00;;;;;;;7.23;43.69;98536.31;108994;1278;137614;-60
2022/03/29 04:18:30;;;;;;;23.80;12.10;;;;;;;7.26;43.89;98540.77;109070;1278;22547;-60
2022/03/29 04:20:58;;;;;;;23.00;11.10;;;;;;;7.30;43.50;98539.19;108982;1278;138385;-60
2022/03/29 04:23:26;;;;;;;22.50;12.40;;;;;;;7.35;43.60;98540.35;109056;1278;23556;-60
2022/03/29 04:25:55;;;;;;;18.90;12.00;;;;;;;7.40;43.63;98538.05;109090;1278;22372;-60
2022/03/29 04:28:23;;;;;;;20.90;12.10;;;;;;;7.47;43.82;98533.98;108960;1278;137159;-60
2022/03/29 04:30:55;;;;;;;21.00;10.90;;;;;;;7.53;43.62;98528.53;109088;1278;22419;-60
2022/03/29 04:33:23;;;;;;;19.60;11.00;;;;;;;7.61;43.70;98530.86;108959;1278;137386;-60
2022/03/29 04:35:51;;;;;;;16.90;10.70;;;;;;;7.68;43.68;98531.70;109067;1278;22543;-60
2022/03/29 04:38:19;;;;;;;21.30;11.80;;;;;;;7.79;43.49;98528.84;109001;1278;137319;-60
2022/03/29 04:40:48;;;;;;;19.70;11.20;;;;;;;7.95;43.12;98531.67;108947;1278;22547;-60
2022/03/29 04:43:16;;;;;;;18.10;11.10;;;;;;;8.14;43.23;98533.70;109098;1278;22563;-60
2022/03/29 04:45:45;;;;;;;20.20;11.70;;;;;;;8.33;42.88;98531.55;108996;1278;137644;-60
2022/03/29 04:48:14;;;;;;;20.80;11.00;;;;;;;8.56;42.60;98529.23;109067;1278;22274;-60
2022/03/29 04:50:42;;;;;;;21.50;10.60;;;;;;;8.77;42.41;98531.95;108968;1278;138777;-60
2022/03/29 04:53:10;;;;;;;19.60;10.40;;;;;;;8.98;42.25;98531.16;109073;1278;23293;-60
2022/03/29 04:55:38;;;;;;;23.00;12.10;;;;;;;9.21;41.94;98534.45;109088;1278;22501;-60
2022/03/29 04:58:07;;;;;;;19.30;11.30;;;;;;;9.42;41.56;98530.79;108968;1277;138419;-60
2022/03/29 05:00:35;;;;;;;21.00;12.20;;;;;;;9.58;41.07;98532.98;109114;1278;22478;-60
2022/03/29 05:03:03;;;;;;;24.80;13.00;;;;;;;9.73;40.95;98535.23;108994;1278;138913;-60
2022/03/29 05:05:31;;;;;;;20.70;12.10;;;;;;;9.85;40.77;98533.71;109072;1277;23665;-60
2022/03/29 05:08:01;;;;;;;21.70;12.40;;;;;;;9.96;40.75;98529.70;109311;1275;22258;-60
2022/03/29 05:10:49;;;;;;;;;;;;;;;10.11;40.57;98530.63;109405;1273;22480;-60
2022/03/29 05:13:17;;;;;;;;;;;;;;;10.20;40.41;98529.05;109358;1275;22530;-60
2022/03/29 05:15:58;;;;;;;19.00;11.60;;;;;;;10.26;40.33;98534.60;109117;1276;123658;-60
2022/03/29 05:18:26;;;;;;;20.50;11.70;;;;;;;10.27;40.22;98537.11;109369;1274;22435;-60
2022/03/29 05:21:10;;;;;;;23.00;12.70;;;;;;;10.27;40.20;98541.23;109203;1275;139062;-60
2022/03/29 05:23:38;;;;;;;27.40;13.20;;;;;;;10.27;40.36;98540.27;109420;1274;23476;-60
2022/03/29 05:26:06;;;;;;;21.90;12.00;;;;;;;10.26;40.32;98542.61;109312;1276;22552;-60
2022/03/29 05:28:35;;;;;;;26.30;12.50;;;;;;;10.24;40.45;98540.89;109262;1274;137778;-60
2022/03/29 05:31:03;;;;;;;24.10;12.60;;;;;;;10.18;40.55;98539.33;109367;1273;22427;-60
2022/03/29 05:33:32;;;;;;;21.50;11.80;;;;;;;10.13;40.62;98536.39;109242;1274;137713;-60
2022/03/29 05:36:02;;;;;;;21.20;11.90;;;;;;;10.09;40.90;98532.27;109386;1274;22466;-60
2022/03/29 05:38:30;;;;;;;20.80;12.00;;;;;;;10.09;41.02;98532.56;109298;1274;138119;-60
2022/03/29 05:40:58;;;;;;;22.60;11.50;;;;;;;10.09;41.05;98532.07;109388;1274;22395;-60
2022/03/29 05:43:26;;;;;;;20.40;11.80;;;;;;;10.09;41.26;98530.65;109347;1274;22402;-60
2022/03/29 05:48:55;;;;;;;20.00;11.00;;;;;;;10.17;41.33;98536.33;109388;1274;22414;-60
2022/03/29 05:51:24;;;;;;;22.50;11.50;;;;;;;10.21;41.38;98528.83;109293;1273;137931;-60
2022/03/29 05:53:53;;;;;;;25.30;12.60;;;;;;;10.26;41.47;98528.29;109380;1274;22505;-60
2022/03/29 05:56:22;;;;;;;22.10;13.20;;;;;;;10.31;41.51;98527.08;109380;1273;22445;-60
2022/03/29 05:58:50;;;;;;;24.60;13.10;;;;;;;10.37;41.53;98532.02;109260;1274;137541;-60
2022/03/29 06:01:18;;;;;;;22.30;13.20;;;;;;;10.42;41.46;98535.52;109376;1273;22430;-60
2022/03/29 06:03:47;;;;;;;26.30;13.90;;;;;;;10.47;41.74;98535.05;109272;1274;138524;-60
2022/03/29 06:06:16;;;;;;;27.80;15.00;;;;;;;10.54;41.86;98535.02;109380;1274;22403;-59
2022/03/29 06:08:44;;;;;;;28.30;14.60;;;;;;;10.59;41.64;98530.67;109311;1274;139098;-60
2022/03/29 06:11:14;;;;;;;24.90;14.50;;;;;;;10.64;41.66;98532.39;109426;1274;23353;-60
2022/03/29 06:13:43;;;;;;;24.40;13.50;;;;;;;10.71;41.86;98529.29;109408;1274;22447;-59
2022/03/29 06:16:11;;;;;;;22.00;13.10;;;;;;;10.79;41.95;98528.26;107430;1274;138732;-59
2022/03/29 06:18:40;;;;;;;26.60;13.40;;;;;;;10.88;41.98;98534.17;109354;1273;23407;-60
2022/03/29 06:21:08;;;;;;;25.80;14.00;;;;;;;10.94;41.62;98529.13;109287;1274;138979;-61
2022/03/29 06:23:39;;;;;;;25.10;14.30;;;;;;;10.98;41.68;98530.11;109367;1274;23151;-60
2022/03/29 06:26:08;;;;;;;22.10;12.00;;;;;;;11.01;41.87;98528.57;109406;1274;22378;-60
2022/03/29 06:28:37;;;;;;;23.70;12.30;;;;;;;11.04;41.75;98528.54;109325;1273;137951;-60
2022/03/29 06:31:07;;;;;;;28.10;13.60;;;;;;;11.06;41.92;98534.04;109296;1276;22900;-60
2022/03/29 06:33:36;;;;;;;21.90;13.00;;;;;;;11.08;42.09;98531.80;109182;1274;141156;-60
2022/03/29 06:36:04;;;;;;;23.70;10.80;;;;;;;11.10;41.95;98527.36;109404;1274;22427;-60
2022/03/29 06:38:32;;;;;;;19.80;11.20;;;;;;;11.11;41.99;98525.11;109296;1274;138763;-60
2022/03/29 06:41:01;;;;;;;18.90;11.00;;;;;;;11.11;42.34;98523.35;109359;1274;22442;-63
2022/03/29 06:43:30;;;;;;;20.00;11.00;;;;;;;11.13;42.23;98523.77;109402;1274;22441;-63
2022/03/29 06:45:58;;;;;;;17.90;11.60;;;;;;;11.15;42.42;98519.39;109082;1276;138227;-60
2022/03/29 06:48:27;;;;;;;18.10;10.20;;;;;;;11.19;42.91;98516.48;109413;1274;22425;-61
2022/03/29 06:51:10;;;;;;;18.20;10.90;;;;;;;11.25;42.65;98520.46;109278;1274;137887;-63
2022/03/29 06:53:39;;;;;;;19.70;11.50;;;;;;;11.30;42.45;98516.31;109376;1274;22444;-61
2022/03/29 06:56:09;;;;;;;19.30;10.90;;;;;;;11.37;43.01;98512.34;109414;1274;22386;-61
2022/03/29 06:58:38;;;;;;;19.80;11.50;;;;;;;11.46;42.91;98507.22;109314;1274;138306;-61
2022/03/29 07:01:07;;;;;;;21.60;11.60;;;;;;;11.55;42.95;98510.98;109390;1274;22433;-61
2022/03/29 07:03:36;;;;;;;17.60;11.50;;;;;;;11.66;42.72;98512.46;109316;1274;137635;-61
2022/03/29 07:06:04;;;;;;;18.80;11.70;;;;;;;11.74;42.82;98513.80;109405;1274;22420;-61
2022/03/29 07:08:33;;;;;;;25.70;11.30;;;;;;;11.83;42.68;98511.42;109299;1274;139382;-60
2022/03/29 07:11:21;;;;;;;20.20;11.00;;;;;;;11.93;42.79;98504.72;109405;1274;22582;-61
2022/03/29 07:13:50;;;;;;;22.10;10.20;;;;;;;12.02;42.65;98507.14;109406;1274;22442;-60
2022/03/29 07:16:19;;;;;;;19.50;9.90;;;;;;;12.12;42.82;98507.09;109288;1274;137553;-60
2022/03/29 07:18:49;;;;;;;17.80;9.50;;;;;;;12.20;42.59;98504.85;109382;1274;22468;-60
2022/03/29 07:21:17;;;;;;;17.50;9.60;;;;;;;12.28;42.44;98497.80;109289;1274;138553;-61
2022/03/29 07:23:45;;;;;;;20.60;10.00;;;;;;;12.37;42.75;98495.67;109337;1274;22253;-60
2022/03/29 07:26:14;;;;;;;18.50;9.90;;;;;;;12.46;42.63;98492.58;109410;1274;22493;-60
2022/03/29 07:28:42;;;;;;;17.60;8.90;;;;;;;12.54;42.35;98487.55;109301;1274;137715;-60
2022/03/29 07:31:10;;;;;;;15.50;9.40;;;;;;;12.61;42.13;98488.37;109391;1274;23476;-60
2022/03/29 07:33:39;;;;;;;14.50;8.10;;;;;;;12.68;42.04;98487.61;109285;1274;137895;-60
2022/03/29 07:36:07;;;;;;;18.10;9.00;;;;;;;12.75;42.13;98484.87;109360;1274;23139;-60
2022/03/29 07:38:35;;;;;;;12.30;8.10;;;;;;;12.84;42.34;98480.58;109085;1277;139329;-61
2022/03/29 07:41:04;;;;;;;16.40;8.80;;;;;;;12.94;42.25;98480.58;109388;1274;22446;-61
2022/03/29 07:43:32;;;;;;;19.30;8.60;;;;;;;13.05;42.37;98475.97;109270;1275;22592;-60
2022/03/29 07:46:00;;;;;;;13.70;7.80;;;;;;;13.17;42.13;98479.52;109256;1274;137730;-61
2022/03/29 07:48:31;;;;;;;17.70;8.90;;;;;;;13.30;41.68;98479.70;109386;1274;22463;-61
2022/03/29 07:51:19;;;;;;;15.50;8.60;;;;;;;13.41;41.78;98476.77;109312;1274;138012;-61
2022/03/29 07:53:48;;;;;;;13.60;8.40;;;;;;;13.51;41.82;98474.63;109388;1274;23310;-61
2022/03/29 07:56:16;;;;;;;10.70;7.10;;;;;;;13.62;41.53;98471.30;109400;1274;22518;-61
2022/03/29 07:58:45;;;;;;;15.70;7.40;;;;;;;13.73;41.02;98468.93;109248;1274;138390;-61
2022/03/29 08:01:13;;;;;;;15.30;6.30;;;;;;;13.81;40.73;98467.56;109422;1274;22523;-61
2022/03/29 08:03:44;;;;;;;13.10;7.10;;;;;;;13.87;40.67;98467.67;109146;1275;139402;-61
2022/03/29 08:06:12;;;;;;;14.90;7.20;;;;;;;13.90;40.64;98468.16;109383;1274;22450;-60
2022/03/29 08:08:53;;;;;;;10.50;6.40;;;;;;;13.94;40.81;98463.32;109280;1274;138903;-61
2022/03/29 08:11:22;;;;;;;15.00;7.20;;;;;;;13.99;40.84;98458.92;109411;1274;22491;-61
2022/03/29 08:13:50;;;;;;;13.50;7.10;;;;;;;14.04;40.81;98454.53;109368;1274;22420;-61
2022/03/29 08:16:19;;;;;;;10.90;6.80;;;;;;;14.10;40.48;98451.41;109265;1274;139207;-60
2022/03/29 08:18:47;;;;;;;11.10;6.50;;;;;;;14.12;40.29;98444.31;109373;1274;22513;-59
2022/03/29 08:24:03;;;;;;;17.10;7.30;;;;;;;14.12;40.50;98438.55;109371;1274;22454;-60
2022/03/29 08:29:06;;;;;;;10.10;6.50;;;;;;;14.24;41.18;98430.88;101477;1309;545728;-60
2022/03/29 08:31:34;;;;;;;16.10;6.50;;;;;;;14.32;41.25;98433.05;103885;1286;24282;-60
2022/03/29 08:34:03;;;;;;;15.90;7.10;;;;;;;14.42;41.40;98426.55;108176;1286;137870;-60
2022/03/29 08:36:32;;;;;;;13.50;7.40;;;;;;;14.51;41.18;98421.64;108308;1285;23250;-60
2022/03/29 08:39:02;;;;;;;13.70;6.80;;;;;;;14.60;40.98;98418.34;108226;1286;137790;-60
2022/03/29 08:41:35;;;;;;;10.90;5.90;;;;;;;14.65;40.90;98428.13;108341;1286;23441;-60
2022/03/29 08:44:05;;;;;;;11.70;6.50;;;;;;;14.69;41.11;98416.11;108208;1284;23483;-60
2022/03/29 08:46:35;;;;;;;15.80;6.90;;;;;;;14.72;41.22;98409.92;108428;1284;136933;-60
2022/03/29 08:49:07;;;;;;;14.50;6.10;;;;;;;14.78;41.21;98406.64;108533;1282;22420;-60
2022/03/29 08:51:36;;;;;;;11.00;5.70;;;;;;;14.83;41.40;98405.10;108405;1284;137895;-60
2022/03/29 08:54:05;;;;;;;11.30;5.60;;;;;;;14.89;41.70;98405.70;108498;1284;22453;-61
2022/03/29 08:56:33;;;;;;;12.70;6.20;;;;;;;14.95;41.69;98403.36;106023;1284;22823;-60
2022/03/29 08:59:02;;;;;;;12.40;6.80;;;;;;;15.01;41.66;98396.45;104172;1286;138004;-60
2022/03/29 09:01:30;;;;;;;13.10;6.10;;;;;;;15.06;42.06;98396.99;108505;1284;23258;-60
2022/03/29 09:04:21;;;;;;;14.00;6.30;;;;;;;15.12;42.08;98391.52;108416;1284;137090;-60
2022/03/29 09:06:56;;;;;;;14.60;6.70;;;;;;;15.17;42.22;98390.75;108522;1284;22470;-61
2022/03/29 09:09:33;;;;;;;15.30;6.80;;;;;;;15.26;42.12;98389.45;108434;1283;137286;-60
2022/03/29 09:12:09;;;;;;;;;;;;;;;15.34;42.11;98380.27;108533;1284;23265;-60
2022/03/29 09:14:58;;;;;;;10.80;6.10;;;;;;;15.40;41.70;98374.11;108408;1284;124264;-61
2022/03/29 09:17:26;;;;;;;12.80;7.00;;;;;;;15.41;41.82;98372.17;108529;1284;22515;-61
2022/03/29 09:19:55;;;;;;;14.10;6.80;;;;;;;15.44;41.86;98367.69;108486;1284;22462;-61
2022/03/29 09:22:46;;;;;;;16.50;7.80;;;;;;;15.46;41.95;98363.98;108401;1284;137135;-61
2022/03/29 09:25:16;;;;;;;12.80;6.50;;;;;;;15.53;41.97;98369.09;108547;1284;22420;-60
2022/03/29 09:27:55;;;;;;;11.80;6.60;;;;;;;15.58;41.87;98359.52;108460;1283;137231;-61
2022/03/29 09:30:25;;;;;;;18.40;7.80;;;;;;;15.63;41.64;98357.17;108566;1282;23099;-61
2022/03/29 09:33:02;;;;;;;10.00;6.40;;;;;;;15.66;41.75;98352.02;108483;1283;137670;-61
2022/03/29 09:35:32;;;;;;;16.30;7.00;;;;;;;15.69;41.65;98349.36;108583;1281;22445;-64
2022/03/29 09:38:01;;;;;;;13.30;7.00;;;;;;;15.71;41.36;98342.92;108594;1282;23318;-64
2022/03/29 09:40:34;;;;;;;15.70;8.00;;;;;;;15.73;41.35;98336.02;108397;1284;138358;-64
2022/03/29 09:43:21;;;;;;;12.60;6.50;;;;;;;15.74;41.49;98327.11;108511;1282;22426;-64
2022/03/29 09:45:51;;;;;;;9.80;6.80;;;;;;;15.76;41.80;98317.08;108450;1283;138978;-64
2022/03/29 09:48:26;;;;;;;14.20;6.40;;;;;;;15.79;41.80;98310.08;108588;1283;23275;-64
2022/03/29 09:50:56;;;;;;;14.10;7.10;;;;;;;15.84;42.00;98309.17;108496;1282;137646;-64
2022/03/29 09:53:39;;;;;;;14.40;6.50;;;;;;;15.91;41.87;98313.24;108602;1283;23204;-64
2022/03/29 09:56:11;;;;;;;10.30;6.00;;;;;;;15.99;41.67;98316.60;108577;1282;22416;-64
2022/03/29 09:59:16;;;;;;;15.80;7.10;;;;;;;16.04;41.62;98316.96;108499;1283;137077;-64
2022/03/29 10:01:57;;;;;;;13.50;6.20;;;;;;;16.08;41.56;98315.98;108587;1283;22602;-64
2022/03/29 10:04:29;;;;;;;11.30;6.00;;;;;;;16.10;41.64;98315.36;108403;1284;137675;-64
2022/03/29 10:06:58;;;;;;;9.60;5.60;;;;;;;16.11;41.70;98310.55;108540;1283;22465;-61
2022/03/29 10:09:35;;;;;;;11.10;5.50;;;;;;;16.13;42.00;98307.64;108198;1283;137904;-61
2022/03/29 10:12:07;;;;;;;11.50;6.50;;;;;;;16.16;41.86;98308.59;108579;1283;22441;-61
2022/03/29 10:14:44;;;;;;;11.10;6.20;;;;;;;16.19;41.52;98301.86;108596;1283;22551;-61
2022/03/29 10:17:13;;;;;;;;;;;;;;;16.18;41.71;98300.24;108478;1283;137104;-61
2022/03/29 10:19:42;;;;;;;11.30;6.50;;;;;;;16.17;41.79;98292.98;108590;1282;22467;-60
2022/03/29 10:22:11;;;;;;;12.30;6.60;;;;;;;16.17;41.66;98288.84;108373;1284;137501;-61
2022/03/29 10:24:39;;;;;;;12.80;7.60;;;;;;;16.18;41.75;98282.59;108239;1284;23270;-60
2022/03/29 10:27:08;;;;;;;12.50;6.80;;;;;;;16.19;41.83;98278.06;108441;1283;137861;-61
2022/03/29 10:29:40;;;;;;;11.50;6.60;;;;;;;16.21;41.68;98275.42;108482;1283;23134;-61
2022/03/29 10:32:08;;;;;;;10.20;7.00;;;;;;;16.22;41.69;98271.96;108422;1283;22497;-60
2022/03/29 10:34:39;;;;;;;10.70;7.20;;;;;;;16.25;41.98;98264.69;108199;1285;137511;-60
2022/03/29 10:37:21;;;;;;;15.80;7.40;;;;;;;16.32;42.09;98256.04;108483;1283;22452;-61
2022/03/29 10:39:54;;;;;;;13.70;7.30;;;;;;;16.43;41.67;98245.63;108495;1282;137098;-61
2022/03/29 10:42:42;;;;;;;15.30;7.90;;;;;;;16.57;41.34;98240.86;108558;1283;22426;-61
2022/03/29 10:45:23;;;;;;;10.20;6.20;;;;;;;16.71;41.07;98237.30;108490;1283;137764;-61
2022/03/29 10:47:55;;;;;;;12.70;7.30;;;;;;;16.82;40.66;98235.27;108488;1284;22556;-61
2022/03/29 10:50:50;;;;;;;10.50;6.50;;;;;;;16.92;40.41;98241.66;108570;1281;23215;-60
2022/03/29 10:53:28;;;;;;;14.90;7.60;;;;;;;16.96;40.18;98236.09;108475;1282;137428;-61
2022/03/29 10:56:15;;;;;;;12.00;7.40;;;;;;;16.93;40.05;98236.09;108581;1283;23319;-60
2022/03/29 10:59:09;;;;;;;11.60;7.00;;;;;;;16.87;39.99;98227.06;108462;1283;137538;-60
2022/03/29 11:01:39;;;;;;;8.50;6.60;;;;;;;16.81;40.10;98225.48;108573;1283;23151;-61
2022/03/29 11:04:14;;;;;;;11.70;6.30;;;;;;;16.74;39.96;98226.18;108509;1283;137981;-61
2022/03/29 11:07:06;;;;;;;13.30;6.80;;;;;;;16.65;39.99;98227.92;108568;1283;22458;-61
2022/03/29 11:09:35;;;;;;;12.30;7.20;;;;;;;16.56;40.08;98236.89;108424;1284;138589;-61
2022/03/29 11:12:05;;;;;;;20.40;6.80;;;;;;;16.45;39.89;98242.95;108586;1282;22535;-61
2022/03/29 11:14:35;;;;;;;21.40;8.40;;;;;;;16.36;39.97;98262.63;108470;1283;22898;-61
2022/03/29 11:17:04;;;;;;;67.70;17.70;;;;;;;16.22;42.14;98312.92;108421;1283;138157;-61
2022/03/29 11:19:49;;;;;;;29.30;14.80;;;;;;;15.86;46.45;98352.73;108552;1283;23744;-61
2022/03/29 11:22:28;;;;;;;21.60;13.10;;;;;;;15.11;51.52;98379.47;108499;1283;137808;-60
2022/03/29 11:25:00;;;;;;;23.70;13.60;;;;;;;14.29;55.56;98386.44;108608;1283;22424;-60
2022/03/29 11:27:36;;;;;;;;;;;;;;;13.50;58.66;98383.73;108493;1283;138420;-60
2022/03/29 11:30:06;;;;;;;28.50;16.00;;;;;;;12.82;61.78;98385.96;108579;1282;22475;-60
2022/03/29 11:32:36;;;;;;;30.40;16.10;;;;;;;12.26;63.28;98378.33;108600;1283;22223;-60
2022/03/29 11:35:05;;;;;;;34.70;17.00;;;;;;;11.87;65.93;98373.59;108515;1283;137558;-60
2022/03/29 11:37:40;;;;;;;34.80;17.80;;;;;;;11.55;67.08;98370.02;108576;1283;22410;-60
2022/03/29 11:40:14;;;;;;;35.10;19.00;;;;;;;11.33;68.30;98362.77;108510;1282;138335;-60
2022/03/29 11:42:49;;;;;;;34.70;18.00;;;;;;;11.19;69.07;98356.60;108629;1283;22453;-59